Time;durP1;ratioP1;P1;durP2;ratioP2;P2;SDS_P1;SDS_P2;PMS_P1;PMS_P2;Temp;Humidity;BMP_temperature;BMP_pressure;BME280_temperature;BME280_humidity;BME280_pressure;Samples;Min_cycle;Max_cycle;Signal;HPM_P1;HPM_P2
2022/02/17 00:02:14;;;;;;;;;;;11.40;99.50;;;;;;5043969;28;19916;-64
2022/02/17 00:04:39;;;;;;;;;;;11.50;99.30;;;;;;5044226;28;19976;-64
2022/02/17 00:07:05;;;;;;;;;;;11.50;99.10;;;;;;5044011;28;19909;-64
2022/02/17 00:09:31;;;;;;;;;;;11.60;98.90;;;;;;5044210;28;20083;-63
2022/02/17 00:11:56;;;;;;;;;;;11.70;98.80;;;;;;5043936;28;19913;-63
2022/02/17 00:14:23;;;;;;;;;;;11.70;98.90;;;;;;5042656;28;20175;-64
2022/02/17 00:16:52;;;;;;;;;;;11.70;98.80;;;;;;5042814;28;19944;-63
2022/02/17 00:19:21;;;;;;;;;;;11.70;98.80;;;;;;5043805;28;19921;-64
2022/02/17 00:21:50;;;;;;;;;;;11.80;98.50;;;;;;5053786;28;20396;-63
2022/02/17 00:24:16;;;;;;;;;;;11.90;98.30;;;;;;5075488;28;19908;-64
2022/02/17 00:26:42;;;;;;;;;;;12.00;98.00;;;;;;5077215;28;19908;-63
2022/02/17 00:29:08;;;;;;;;;;;12.00;98.10;;;;;;5075892;28;19916;-64
2022/02/17 00:31:33;;;;;;;;;;;12.00;97.90;;;;;;5083609;28;20214;-63
2022/02/17 00:33:59;;;;;;;;;;;12.00;98.20;;;;;;5083725;28;19974;-63
2022/02/17 00:36:25;;;;;;;;;;;12.00;98.30;;;;;;5083706;28;19909;-64
2022/02/17 00:38:50;;;;;;;;;;;11.90;98.60;;;;;;5083527;28;19913;-64
2022/02/17 00:41:18;;;;;;;;;;;11.90;98.50;;;;;;5056492;28;19933;-63
2022/02/17 00:43:45;;;;;;;;;;;11.90;98.60;;;;;;5055794;28;20118;-64
2022/02/17 00:46:11;;;;;;;;;;;11.90;98.60;;;;;;5075012;28;19953;-63
2022/02/17 00:48:37;;;;;;;;;;;11.90;98.50;;;;;;5079114;28;19940;-64
2022/02/17 00:51:03;;;;;;;;;;;11.90;98.60;;;;;;5074708;28;19916;-64
2022/02/17 00:53:28;;;;;;;;;;;11.80;98.50;;;;;;5078540;28;19908;-63
2022/02/17 00:55:54;;;;;;;;;;;11.80;98.70;;;;;;5077349;28;19912;-63
2022/02/17 00:58:20;;;;;;;;;;;11.80;98.60;;;;;;5054119;28;19913;-63
2022/02/17 01:00:45;;;;;;;;;;;11.80;98.30;;;;;;5053250;28;20069;-63
2022/02/17 01:03:11;;;;;;;;;;;11.80;98.20;;;;;;5074569;28;19915;-63
2022/02/17 01:05:37;;;;;;;;;;;11.80;98.20;;;;;;5082830;28;19943;-64
2022/02/17 01:08:03;;;;;;;;;;;11.80;98.20;;;;;;5083027;28;19999;-64
2022/02/17 01:10:28;;;;;;;;;;;11.80;98.30;;;;;;5082601;28;19909;-63
2022/02/17 01:12:54;;;;;;;;;;;11.80;98.40;;;;;;5082487;28;19916;-64
2022/02/17 01:15:20;;;;;;;;;;;11.80;98.40;;;;;;5082737;28;19927;-63
2022/02/17 01:17:45;;;;;;;;;;;11.80;98.30;;;;;;5082300;28;19916;-63
2022/02/17 01:20:11;;;;;;;;;;;11.80;98.30;;;;;;5074373;28;19912;-63
2022/02/17 01:22:37;;;;;;;;;;;11.80;98.10;;;;;;5075015;28;19915;-63
2022/02/17 01:25:03;;;;;;;;;;;11.80;98.20;;;;;;5074360;28;19954;-64
2022/02/17 01:27:31;;;;;;;;;;;11.90;98.10;;;;;;5070750;28;19917;-64
2022/02/17 01:29:57;;;;;;;;;;;11.90;98.00;;;;;;5042660;28;19924;-63
2022/02/17 01:32:23;;;;;;;;;;;11.90;98.00;;;;;;5042341;28;19909;-63
2022/02/17 01:34:49;;;;;;;;;;;11.90;97.90;;;;;;5042549;28;19909;-63
2022/02/17 01:37:14;;;;;;;;;;;11.90;98.00;;;;;;5042486;28;19941;-63
2022/02/17 01:39:40;;;;;;;;;;;11.90;98.00;;;;;;5042358;28;19913;-64
2022/02/17 01:42:09;;;;;;;;;;;11.90;98.00;;;;;;5040873;28;19971;-63
2022/02/17 01:44:35;;;;;;;;;;;12.00;97.80;;;;;;5063579;28;19965;-63
2022/02/17 01:47:01;;;;;;;;;;;12.00;97.70;;;;;;5073761;28;20217;-64
2022/02/17 01:49:26;;;;;;;;;;;11.90;97.80;;;;;;5080454;28;20084;-64
2022/02/17 01:51:52;;;;;;;;;;;11.90;97.70;;;;;;5080912;28;19908;-64
2022/02/17 01:54:18;;;;;;;;;;;12.00;97.50;;;;;;5073712;28;19908;-64
2022/02/17 01:56:44;;;;;;;;;;;12.00;97.40;;;;;;5080930;28;19908;-64
2022/02/17 01:59:10;;;;;;;;;;;11.90;97.50;;;;;;5042577;28;19946;-64
2022/02/17 02:01:36;;;;;;;;;;;11.90;97.30;;;;;;5041814;28;19909;-63
2022/02/17 02:04:05;;;;;;;;;;;12.00;97.30;;;;;;5040960;28;20027;-63
2022/02/17 02:06:31;;;;;;;;;;;11.90;97.50;;;;;;5045087;28;19921;-64
2022/02/17 02:08:56;;;;;;;;;;;12.00;97.40;;;;;;5065809;28;19962;-64
2022/02/17 02:11:22;;;;;;;;;;;11.90;97.40;;;;;;5067902;28;19909;-63
2022/02/17 02:13:48;;;;;;;;;;;11.90;97.50;;;;;;5081431;28;19909;-63
2022/02/17 02:16:13;;;;;;;;;;;11.90;97.30;;;;;;5076749;28;19920;-64
2022/02/17 02:18:39;;;;;;;;;;;12.00;97.20;;;;;;5055303;28;19979;-64
2022/02/17 02:21:05;;;;;;;;;;;12.00;97.10;;;;;;5060692;28;19913;-64
2022/02/17 02:23:31;;;;;;;;;;;12.00;97.10;;;;;;5071511;28;19927;-63
2022/02/17 02:25:57;;;;;;;;;;;12.00;97.20;;;;;;5073386;28;19908;-64
2022/02/17 02:28:24;;;;;;;;;;;12.00;97.20;;;;;;5066627;28;20222;-64
2022/02/17 02:30:50;;;;;;;;;;;12.00;97.10;;;;;;5071696;28;20337;-64
2022/02/17 02:33:16;;;;;;;;;;;12.00;97.10;;;;;;5081713;28;19916;-64
2022/02/17 02:35:43;;;;;;;;;;;12.00;97.00;;;;;;5081485;28;19908;-64
2022/02/17 02:38:09;;;;;;;;;;;12.10;96.70;;;;;;5081557;28;19971;-63
2022/02/17 02:40:35;;;;;;;;;;;12.20;96.70;;;;;;5081309;28;20150;-64
2022/02/17 02:43:01;;;;;;;;;;;12.10;96.80;;;;;;5081279;28;19908;-64
2022/02/17 02:45:27;;;;;;;;;;;12.20;96.50;;;;;;5077215;28;19919;-64
2022/02/17 02:47:53;;;;;;;;;;;12.20;96.50;;;;;;5075275;28;19913;-64
2022/02/17 02:50:19;;;;;;;;;;;12.20;96.40;;;;;;5080842;28;19964;-63
2022/02/17 02:52:44;;;;;;;;;;;12.20;96.30;;;;;;5081304;28;20014;-64
2022/02/17 02:55:10;;;;;;;;;;;12.30;96.30;;;;;;5081410;28;19908;-64
2022/02/17 02:57:35;;;;;;;;;;;12.30;96.30;;;;;;5068820;28;19916;-63
2022/02/17 03:00:02;;;;;;;;;;;12.20;96.30;;;;;;5041052;28;19913;-64
2022/02/17 03:02:28;;;;;;;;;;;12.20;96.30;;;;;;5041149;28;19909;-64
2022/02/17 03:04:54;;;;;;;;;;;12.20;96.50;;;;;;5041358;28;19955;-64
2022/02/17 03:07:20;;;;;;;;;;;12.20;96.50;;;;;;5041283;28;19915;-63
2022/02/17 03:09:45;;;;;;;;;;;12.30;96.20;;;;;;5041539;28;20215;-63
2022/02/17 03:12:11;;;;;;;;;;;12.30;96.30;;;;;;5047662;28;19909;-63
2022/02/17 03:14:37;;;;;;;;;;;12.20;96.50;;;;;;5072626;28;19955;-64
2022/02/17 03:17:03;;;;;;;;;;;12.20;96.50;;;;;;5081205;28;20238;-64
2022/02/17 03:19:28;;;;;;;;;;;12.20;96.70;;;;;;5081055;28;19936;-64
2022/02/17 03:21:54;;;;;;;;;;;12.20;96.50;;;;;;5080906;28;19920;-64
2022/02/17 03:24:20;;;;;;;;;;;12.20;96.50;;;;;;5082521;28;19908;-64
2022/02/17 03:26:45;;;;;;;;;;;12.20;96.40;;;;;;5084752;28;20167;-62
2022/02/17 03:29:11;;;;;;;;;;;12.20;96.30;;;;;;5058558;28;19913;-64
2022/02/17 03:31:37;;;;;;;;;;;12.20;96.30;;;;;;5044590;28;19972;-63
2022/02/17 03:34:02;;;;;;;;;;;12.20;96.90;;;;;;5044740;28;19980;-63
2022/02/17 03:36:28;;;;;;;;;;;12.20;97.20;;;;;;5044992;28;20200;-64
2022/02/17 03:38:56;;;;;;;;;;;12.10;97.30;;;;;;5044609;28;19924;-63
2022/02/17 03:41:21;;;;;;;;;;;12.10;97.30;;;;;;5044325;28;19909;-63
2022/02/17 03:43:47;;;;;;;;;;;12.10;97.20;;;;;;5044316;28;19915;-64
2022/02/17 03:46:13;;;;;;;;;;;12.10;97.80;;;;;;5044505;28;19909;-63
2022/02/17 03:48:38;;;;;;;;;;;12.00;98.10;;;;;;5043768;28;20193;-63
2022/02/17 03:51:04;;;;;;;;;;;12.00;98.10;;;;;;5044176;28;19980;-63
2022/02/17 03:53:30;;;;;;;;;;;12.00;97.90;;;;;;5044410;28;19924;-64
2022/02/17 03:55:55;;;;;;;;;;;12.00;97.70;;;;;;5044360;28;19915;-63
2022/02/17 03:59:08;;;;;;;;;;;12.00;97.70;;;;;;5043251;28;19917;-63
2022/02/17 04:01:07;;;;;;;;;;;12.00;97.40;;;;;;5043335;28;19920;-64
2022/02/17 04:03:33;;;;;;;;;;;12.20;96.70;;;;;;5044371;28;20127;-64
2022/02/17 04:05:58;;;;;;;;;;;12.20;96.60;;;;;;5044213;28;19909;-64
2022/02/17 04:08:24;;;;;;;;;;;12.20;96.40;;;;;;5044089;28;20358;-64
2022/02/17 04:10:50;;;;;;;;;;;12.30;96.00;;;;;;5043759;28;19909;-64
2022/02/17 04:13:16;;;;;;;;;;;12.40;96.10;;;;;;5043778;28;19972;-64
2022/02/17 04:15:41;;;;;;;;;;;12.40;95.60;;;;;;5044091;28;19909;-64
2022/02/17 04:18:07;;;;;;;;;;;12.50;95.90;;;;;;5043966;28;19963;-63
2022/02/17 04:20:33;;;;;;;;;;;12.40;96.50;;;;;;5043712;28;19943;-63
2022/02/17 04:22:58;;;;;;;;;;;12.40;96.60;;;;;;5043840;28;20063;-64
2022/02/17 04:25:24;;;;;;;;;;;12.30;96.90;;;;;;5043804;28;20208;-63
2022/02/17 04:27:50;;;;;;;;;;;12.30;96.50;;;;;;5043600;28;19909;-63
2022/02/17 04:30:15;;;;;;;;;;;12.30;97.40;;;;;;5043539;28;19917;-63
2022/02/17 04:32:41;;;;;;;;;;;12.10;97.20;;;;;;5043557;28;20188;-64
2022/02/17 04:35:07;;;;;;;;;;;12.20;96.60;;;;;;5043306;28;19916;-63
2022/02/17 04:37:33;;;;;;;;;;;12.20;96.60;;;;;;5043596;28;20068;-64
2022/02/17 04:40:00;;;;;;;;;;;12.30;96.00;;;;;;5043450;28;19913;-64
2022/02/17 04:42:27;;;;;;;;;;;12.30;95.60;;;;;;5043192;28;20042;-64
2022/02/17 04:44:53;;;;;;;;;;;12.40;95.30;;;;;;5043197;28;19916;-64
2022/02/17 04:47:19;;;;;;;;;;;12.40;95.10;;;;;;5068633;23;19913;-64
2022/02/17 04:49:44;;;;;;;;;;;12.40;95.10;;;;;;5103687;28;20229;-64
2022/02/17 04:52:10;;;;;;;;;;;12.40;94.50;;;;;;5104424;28;19908;-65
2022/02/17 04:54:36;;;;;;;;;;;12.40;94.10;;;;;;5104582;28;19908;-64
2022/02/17 04:57:05;;;;;;;;;;;12.60;93.50;;;;;;5104714;28;19915;-65
2022/02/17 04:59:30;;;;;;;;;;;12.60;93.60;;;;;;5083372;28;19983;-65
2022/02/17 05:01:56;;;;;;;;;;;12.60;93.20;;;;;;5084217;28;19962;-64
2022/02/17 05:04:22;;;;;;;;;;;12.60;92.70;;;;;;5084445;28;19937;-65
2022/02/17 05:06:47;;;;;;;;;;;12.70;92.50;;;;;;5084281;28;19909;-64
2022/02/17 05:09:13;;;;;;;;;;;12.60;92.60;;;;;;5084249;28;19928;-65
2022/02/17 05:11:39;;;;;;;;;;;12.60;92.30;;;;;;5083888;28;19914;-64
2022/02/17 05:14:04;;;;;;;;;;;12.70;91.90;;;;;;5083865;28;19909;-63
2022/02/17 05:16:32;;;;;;;;;;;12.60;92.10;;;;;;5084125;28;19980;-64
2022/02/17 05:18:58;;;;;;;;;;;12.60;92.30;;;;;;5083833;28;19912;-65
2022/02/17 05:21:24;;;;;;;;;;;12.50;92.60;;;;;;5083646;28;19913;-64
2022/02/17 05:23:50;;;;;;;;;;;12.50;92.80;;;;;;5083954;28;20115;-64
2022/02/17 05:26:16;;;;;;;;;;;12.50;92.90;;;;;;5084134;28;19927;-63
2022/02/17 05:28:41;;;;;;;;;;;12.50;93.20;;;;;;5083630;28;19908;-64
2022/02/17 05:31:07;;;;;;;;;;;12.40;92.40;;;;;;5083570;28;19909;-64
2022/02/17 05:33:33;;;;;;;;;;;12.40;92.40;;;;;;5088405;28;20115;-65
2022/02/17 05:35:58;;;;;;;;;;;12.40;92.40;;;;;;5103488;28;20152;-64
2022/02/17 05:38:24;;;;;;;;;;;12.30;91.80;;;;;;5103456;28;19912;-65
2022/02/17 05:40:50;;;;;;;;;;;12.20;91.60;;;;;;5101916;28;19908;-65
2022/02/17 05:43:16;;;;;;;;;;;12.20;92.30;;;;;;5103224;28;19947;-64
2022/02/17 05:45:41;;;;;;;;;;;12.10;93.00;;;;;;5103464;28;20140;-64
2022/02/17 05:48:07;;;;;;;;;;;12.00;93.00;;;;;;5101913;28;20203;-63
2022/02/17 05:50:33;;;;;;;;;;;12.00;93.20;;;;;;5103333;28;19962;-65
2022/02/17 05:52:59;;;;;;;;;;;12.00;93.30;;;;;;5102973;28;20295;-65
2022/02/17 05:55:25;;;;;;;;;;;11.90;93.50;;;;;;5103370;28;19915;-65
2022/02/17 05:57:50;;;;;;;;;;;11.90;92.70;;;;;;5103275;28;19908;-65
2022/02/17 06:00:16;;;;;;;;;;;11.90;91.90;;;;;;5081998;28;19915;-65
2022/02/17 06:02:45;;;;;;;;;;;11.90;91.60;;;;;;5081607;28;20104;-66
2022/02/17 06:05:11;;;;;;;;;;;11.80;91.80;;;;;;5081842;28;20195;-66
2022/02/17 06:07:37;;;;;;;;;;;11.80;90.90;;;;;;5083085;28;19919;-65
2022/02/17 06:10:04;;;;;;;;;;;11.80;90.10;;;;;;5082308;28;19979;-66
2022/02/17 06:12:29;;;;;;;;;;;11.70;89.80;;;;;;5082435;28;19931;-66
2022/02/17 06:14:55;;;;;;;;;;;11.70;87.50;;;;;;5080516;28;19908;-66
2022/02/17 06:17:21;;;;;;;;;;;11.70;87.60;;;;;;5080352;28;19959;-65
2022/02/17 06:19:46;;;;;;;;;;;11.70;84.60;;;;;;5082479;28;20221;-66
2022/02/17 06:22:12;;;;;;;;;;;11.60;88.30;;;;;;5082460;28;19913;-65
2022/02/17 06:24:38;;;;;;;;;;;11.60;89.00;;;;;;5082774;28;19909;-66
2022/02/17 06:27:04;;;;;;;;;;;11.60;85.80;;;;;;5082861;28;19962;-68
2022/02/17 06:29:29;;;;;;;;;;;11.60;75.50;;;;;;5082635;28;19939;-66
2022/02/17 06:31:55;;;;;;;;;;;11.50;75.40;;;;;;5082384;28;19916;-66
2022/02/17 06:34:21;;;;;;;;;;;11.40;77.80;;;;;;5082843;28;19908;-65
2022/02/17 06:36:48;;;;;;;;;;;11.40;76.10;;;;;;5082656;28;19924;-65
2022/02/17 06:39:17;;;;;;;;;;;11.40;75.30;;;;;;5082416;28;19909;-65
2022/02/17 06:41:45;;;;;;;;;;;11.30;75.50;;;;;;5082467;28;19912;-66
2022/02/17 06:44:10;;;;;;;;;;;11.30;77.60;;;;;;5082578;28;19922;-66
2022/02/17 06:46:36;;;;;;;;;;;11.20;76.50;;;;;;5082606;28;19909;-65
2022/02/17 06:49:02;;;;;;;;;;;11.30;74.20;;;;;;5082223;28;19951;-65
2022/02/17 06:51:27;;;;;;;;;;;11.40;73.30;;;;;;5081309;28;19908;-65
2022/02/17 06:53:53;;;;;;;;;;;11.30;74.20;;;;;;5082591;28;19908;-65
2022/02/17 06:56:20;;;;;;;;;;;11.30;73.40;;;;;;5082681;28;19912;-65
2022/02/17 06:58:46;;;;;;;;;;;11.30;72.20;;;;;;5084487;28;19909;-64
2022/02/17 07:01:12;;;;;;;;;;;11.30;72.30;;;;;;5086394;28;20230;-65
2022/02/17 07:03:38;;;;;;;;;;;11.30;71.50;;;;;;5086531;28;19932;-65
2022/02/17 07:06:04;;;;;;;;;;;11.30;72.60;;;;;;5086670;28;19971;-65
2022/02/17 07:08:30;;;;;;;;;;;11.20;72.50;;;;;;5086160;28;19981;-65
2022/02/17 07:10:56;;;;;;;;;;;11.20;70.10;;;;;;5086002;28;19928;-64
2022/02/17 07:13:25;;;;;;;;;;;11.20;68.80;;;;;;5086404;28;19916;-66
2022/02/17 07:15:51;;;;;;;;;;;11.20;68.20;;;;;;5086243;28;19952;-66
2022/02/17 07:18:19;;;;;;;;;;;11.20;66.00;;;;;;5086251;28;19909;-66
2022/02/17 07:20:45;;;;;;;;;;;11.20;66.30;;;;;;5085784;28;20211;-66
2022/02/17 07:23:11;;;;;;;;;;;11.20;66.40;;;;;;5086122;28;19913;-65
2022/02/17 07:25:37;;;;;;;;;;;11.20;67.70;;;;;;5086255;28;19916;-66
2022/02/17 07:28:03;;;;;;;;;;;11.10;68.80;;;;;;5086157;28;19908;-66
2022/02/17 07:30:28;;;;;;;;;;;11.10;68.00;;;;;;5085763;28;19908;-66
2022/02/17 07:32:54;;;;;;;;;;;11.00;66.90;;;;;;5085957;28;19978;-65
2022/02/17 07:35:20;;;;;;;;;;;11.00;66.30;;;;;;5086109;28;20209;-66
2022/02/17 07:37:46;;;;;;;;;;;11.00;67.80;;;;;;5085906;28;20203;-65
2022/02/17 07:40:11;;;;;;;;;;;11.00;64.90;;;;;;5085814;28;19908;-65
2022/02/17 07:42:38;;;;;;;;;;;11.00;64.90;;;;;;5085679;28;20237;-66
2022/02/17 07:45:04;;;;;;;;;;;11.00;62.50;;;;;;5084647;28;19969;-66
2022/02/17 07:47:30;;;;;;;;;;;11.00;62.40;;;;;;5085807;28;20112;-66
2022/02/17 07:49:56;;;;;;;;;;;11.00;58.10;;;;;;5085259;28;19971;-65
2022/02/17 07:52:25;;;;;;;;;;;11.00;59.00;;;;;;5085308;28;19912;-65
2022/02/17 07:54:51;;;;;;;;;;;11.00;60.90;;;;;;5085603;28;20258;-65
2022/02/17 07:57:17;;;;;;;;;;;10.90;60.90;;;;;;5085564;28;19924;-65
2022/02/17 07:59:42;;;;;;;;;;;10.80;60.20;;;;;;5085424;28;19915;-65
2022/02/17 08:02:08;;;;;;;;;;;10.80;59.90;;;;;;5084616;28;19912;-66
2022/02/17 08:04:35;;;;;;;;;;;10.80;60.20;;;;;;5085447;28;19931;-66
2022/02/17 08:07:05;;;;;;;;;;;10.80;60.90;;;;;;5085414;28;19946;-66
2022/02/17 08:09:30;;;;;;;;;;;10.80;61.10;;;;;;5084586;28;19908;-66
2022/02/17 08:11:56;;;;;;;;;;;10.80;61.70;;;;;;5085112;28;19939;-66
2022/02/17 08:14:22;;;;;;;;;;;10.80;59.90;;;;;;5085067;28;19908;-65
2022/02/17 08:16:47;;;;;;;;;;;10.80;60.10;;;;;;5085258;28;19908;-66
2022/02/17 08:19:13;;;;;;;;;;;10.80;60.90;;;;;;5085017;28;20211;-65
2022/02/17 08:21:39;;;;;;;;;;;10.70;60.80;;;;;;5084808;28;20211;-66
2022/02/17 08:24:05;;;;;;;;;;;10.70;62.10;;;;;;5085042;28;20200;-65
2022/02/17 08:26:31;;;;;;;;;;;10.80;60.90;;;;;;5084964;28;19908;-65
2022/02/17 08:28:58;;;;;;;;;;;10.80;60.90;;;;;;5084965;28;19915;-65
2022/02/17 08:31:25;;;;;;;;;;;10.80;61.90;;;;;;5084434;28;19954;-65
2022/02/17 08:33:51;;;;;;;;;;;10.80;60.40;;;;;;5084968;28;19919;-65
2022/02/17 08:36:16;;;;;;;;;;;10.80;59.90;;;;;;5084757;28;19909;-65
2022/02/17 08:38:42;;;;;;;;;;;10.80;60.20;;;;;;5084736;28;19909;-64
2022/02/17 08:41:09;;;;;;;;;;;10.90;60.00;;;;;;5084629;28;19916;-65
2022/02/17 08:43:35;;;;;;;;;;;10.90;59.60;;;;;;5084980;28;19981;-65
2022/02/17 08:46:01;;;;;;;;;;;10.90;57.50;;;;;;5084608;28;19912;-64
2022/02/17 08:48:26;;;;;;;;;;;10.90;57.70;;;;;;5083659;28;19912;-65
2022/02/17 08:50:52;;;;;;;;;;;11.00;57.80;;;;;;5084404;28;19915;-65
2022/02/17 08:53:18;;;;;;;;;;;11.10;56.20;;;;;;5084716;28;19908;-66
2022/02/17 08:55:44;;;;;;;;;;;11.10;56.80;;;;;;5084623;28;19935;-66
2022/02/17 08:58:10;;;;;;;;;;;11.20;56.70;;;;;;5084358;28;19931;-65
2022/02/17 09:00:35;;;;;;;;;;;11.20;56.10;;;;;;5082784;28;19908;-65
2022/02/17 09:03:01;;;;;;;;;;;11.20;55.10;;;;;;5084454;28;19979;-64
2022/02/17 09:05:27;;;;;;;;;;;11.20;56.70;;;;;;5084255;28;19923;-64
2022/02/17 09:07:54;;;;;;;;;;;11.20;58.00;;;;;;5084305;28;19947;-65
2022/02/17 09:10:19;;;;;;;;;;;11.20;58.40;;;;;;5084201;28;19909;-64
2022/02/17 09:12:46;;;;;;;;;;;11.30;59.50;;;;;;5084049;28;20094;-64
2022/02/17 09:15:12;;;;;;;;;;;11.20;60.10;;;;;;5082877;28;19955;-65
2022/02/17 09:17:37;;;;;;;;;;;11.30;61.20;;;;;;5084107;28;19908;-65
2022/02/17 09:20:05;;;;;;;;;;;11.20;60.70;;;;;;5083879;28;19908;-65
2022/02/17 09:22:30;;;;;;;;;;;11.20;61.10;;;;;;5082703;28;20250;-65
2022/02/17 09:24:56;;;;;;;;;;;11.30;62.10;;;;;;5084051;28;19908;-65
2022/02/17 09:27:22;;;;;;;;;;;11.40;62.60;;;;;;5083955;28;19912;-65
2022/02/17 09:29:48;;;;;;;;;;;11.40;63.00;;;;;;5083864;28;20014;-65
2022/02/17 09:32:13;;;;;;;;;;;11.30;64.90;;;;;;5083255;28;19987;-65
2022/02/17 09:34:40;;;;;;;;;;;11.10;65.40;;;;;;5083669;28;19908;-65
2022/02/17 09:37:05;;;;;;;;;;;11.00;67.30;;;;;;5083614;28;19908;-65
2022/02/17 09:39:33;;;;;;;;;;;10.90;68.10;;;;;;5083648;28;20110;-65
2022/02/17 09:42:05;;;;;;;;;;;10.60;69.60;;;;;;5083391;28;19912;-65
2022/02/17 09:44:30;;;;;;;;;;;10.50;70.40;;;;;;5083534;28;19908;-64
2022/02/17 09:46:56;;;;;;;;;;;10.50;71.00;;;;;;5083231;28;19916;-64
2022/02/17 09:49:22;;;;;;;;;;;10.50;72.30;;;;;;5083044;28;19913;-64
2022/02/17 09:51:49;;;;;;;;;;;10.50;73.00;;;;;;5083198;28;19909;-65
2022/02/17 09:54:16;;;;;;;;;;;10.40;73.30;;;;;;5083413;28;20211;-65
2022/02/17 09:56:42;;;;;;;;;;;10.50;73.40;;;;;;5082276;28;19962;-65
2022/02/17 09:59:08;;;;;;;;;;;10.60;73.10;;;;;;5083181;28;20199;-65
2022/02/17 10:01:34;;;;;;;;;;;10.70;73.60;;;;;;5082233;28;19913;-65
2022/02/17 10:04:12;;;;;;;;;;;10.80;72.10;;;;;;5083173;28;20235;-66
2022/02/17 10:06:48;;;;;;;;;;;10.90;72.80;;;;;;5083321;28;19908;-65
2022/02/17 10:09:14;;;;;;;;;;;11.10;71.50;;;;;;5081887;28;19909;-65
2022/02/17 10:11:41;;;;;;;;;;;11.30;72.80;;;;;;5082930;28;19916;-66
2022/02/17 10:14:08;;;;;;;;;;;11.40;71.50;;;;;;5083180;28;20014;-66
2022/02/17 10:16:59;;;;;;;;;;;11.10;67.80;;;;;;5082893;28;20203;-65
2022/02/17 10:19:28;;;;;;;;;;;10.80;69.90;;;;;;5082784;28;19980;-66
2022/02/17 10:22:10;;;;;;;;;;;10.50;76.50;;;;;;5082941;28;20106;-65
2022/02/17 10:24:43;;;;;;;;;;;10.60;75.60;;;;;;5083058;28;19909;-66
2022/02/17 10:27:09;;;;;;;;;;;10.60;76.50;;;;;;5082984;28;19908;-66
2022/02/17 10:29:36;;;;;;;;;;;10.70;77.30;;;;;;5082903;28;19914;-65
2022/02/17 10:32:12;;;;;;;;;;;10.70;79.40;;;;;;5082366;28;19908;-65
2022/02/17 10:34:39;;;;;;;;;;;10.90;80.00;;;;;;5082935;28;19931;-65
2022/02/17 10:37:05;;;;;;;;;;;11.10;77.70;;;;;;5083153;28;19923;-66
2022/02/17 10:39:34;;;;;;;;;;;11.40;69.90;;;;;;5081718;28;19908;-66
2022/02/17 10:42:07;;;;;;;;;;;12.00;66.10;;;;;;5082624;28;19920;-66
2022/02/17 10:44:41;;;;;;;;;;;12.30;62.10;;;;;;5082781;28;19915;-66
2022/02/17 10:47:20;;;;;;;;;;;12.20;62.00;;;;;;5082461;28;19916;-66
2022/02/17 10:49:50;;;;;;;;;;;12.00;62.60;;;;;;5097417;22;19920;-63
2022/02/17 10:52:26;;;;;;;;;;;11.70;63.40;;;;;;5081278;28;19916;-62
2022/02/17 10:55:18;;;;;;;;;;;11.50;66.30;;;;;;5081587;28;19915;-63
2022/02/17 10:57:44;;;;;;;;;;;11.30;68.70;;;;;;5081600;28;19908;-63
2022/02/17 11:00:15;;;;;;;;;;;11.00;72.80;;;;;;5081342;28;19920;-63
2022/02/17 11:02:41;;;;;;;;;;;11.80;71.70;;;;;;5080979;28;19954;-63
2022/02/17 11:05:11;;;;;;;;;;;13.00;67.30;;;;;;5080949;28;19912;-62
2022/02/17 11:07:39;;;;;;;;;;;13.30;63.50;;;;;;5081190;28;19943;-63
2022/02/17 11:10:05;;;;;;;;;;;13.00;61.80;;;;;;5081043;28;20114;-62
2022/02/17 11:12:31;;;;;;;;;;;12.70;60.70;;;;;;5081075;28;19915;-62
2022/02/17 11:14:57;;;;;;;;;;;12.30;60.50;;;;;;5081259;28;19983;-63
2022/02/17 11:17:23;;;;;;;;;;;12.10;61.20;;;;;;5081091;28;19908;-63
2022/02/17 11:19:49;;;;;;;;;;;11.70;62.40;;;;;;5064180;28;19955;-63
2022/02/17 11:22:16;;;;;;;;;;;11.40;69.90;;;;;;5059651;28;20187;-62
2022/02/17 11:24:47;;;;;;;;;;;10.70;75.60;;;;;;5061179;28;19916;-63
2022/02/17 11:27:13;;;;;;;;;;;10.20;79.50;;;;;;5061036;28;19924;-63
2022/02/17 11:29:41;;;;;;;;;;;9.90;82.70;;;;;;5076289;28;19908;-63
2022/02/17 11:32:08;;;;;;;;;;;10.70;82.00;;;;;;5060652;28;19909;-63
2022/02/17 11:34:37;;;;;;;;;;;10.70;79.70;;;;;;5059496;28;19909;-63
2022/02/17 11:37:30;;;;;;;;;;;10.80;80.00;;;;;;5060909;28;19944;-64
2022/02/17 11:40:15;;;;;;;;;;;11.10;78.00;;;;;;5060713;28;19916;-63
2022/02/17 11:42:46;;;;;;;;;;;11.60;76.30;;;;;;5075917;28;19955;-63
2022/02/17 11:45:21;;;;;;;;;;;12.20;72.70;;;;;;5061741;28;19908;-64
2022/02/17 11:48:03;;;;;;;;;;;13.30;67.70;;;;;;5064054;28;19954;-63
2022/02/17 11:50:29;;;;;;;;;;;14.70;59.20;;;;;;5064031;28;19909;-63
2022/02/17 11:53:24;;;;;;;;;;;14.50;58.10;;;;;;5064165;28;20191;-63
2022/02/17 11:56:13;;;;;;;;;;;13.20;62.30;;;;;;5064157;28;19954;-63
2022/02/17 11:58:48;;;;;;;;;;;12.30;67.30;;;;;;5060301;28;20192;-63
2022/02/17 12:01:24;;;;;;;;;;;13.10;63.40;;;;;;5062605;28;20036;-64
2022/02/17 12:04:02;;;;;;;;;;;14.20;58.00;;;;;;5064434;28;19920;-64
2022/02/17 12:06:38;;;;;;;;;;;14.80;55.10;;;;;;5062881;28;19913;-63
2022/02/17 12:09:05;;;;;;;;;;;15.60;54.00;;;;;;5064018;28;19912;-64
2022/02/17 12:11:37;;;;;;;;;;;15.70;52.40;;;;;;5063807;28;19908;-63
2022/02/17 12:14:05;;;;;;;;;;;16.00;51.80;;;;;;5064038;28;19938;-63
2022/02/17 12:16:38;;;;;;;;;;;16.90;49.50;;;;;;5063644;28;19923;-63
2022/02/17 12:19:14;;;;;;;;;;;16.50;48.40;;;;;;5063676;28;19913;-63
2022/02/17 12:21:41;;;;;;;;;;;16.70;48.00;;;;;;5063634;28;19916;-63
2022/02/17 12:24:08;;;;;;;;;;;16.10;49.20;;;;;;5063974;28;20038;-63
2022/02/17 12:26:40;;;;;;;;;;;14.80;51.90;;;;;;5063863;28;20003;-63
2022/02/17 12:29:33;;;;;;;;;;;13.60;56.70;;;;;;5062444;28;20108;-63
2022/02/17 12:32:00;;;;;;;;;;;12.80;61.70;;;;;;5062407;28;19974;-63
2022/02/17 12:34:26;;;;;;;;;;;12.00;66.30;;;;;;5063655;28;19916;-63
2022/02/17 12:36:52;;;;;;;;;;;11.60;69.20;;;;;;5063636;28;19936;-63
2022/02/17 12:39:17;;;;;;;;;;;11.20;71.20;;;;;;5063570;28;19913;-63
2022/02/17 12:42:03;;;;;;;;;;;10.90;73.50;;;;;;5064534;28;19936;-63
2022/02/17 12:44:35;;;;;;;;;;;10.80;74.20;;;;;;5063921;28;19954;-63
2022/02/17 12:47:02;;;;;;;;;;;10.60;75.70;;;;;;5063352;28;19920;-63
2022/02/17 12:49:32;;;;;;;;;;;10.30;79.40;;;;;;5062047;28;20176;-63
2022/02/17 12:52:10;;;;;;;;;;;10.20;79.80;;;;;;5063195;28;19909;-63
2022/02/17 12:54:40;;;;;;;;;;;10.20;80.20;;;;;;5063385;28;19944;-63
2022/02/17 12:57:11;;;;;;;;;;;10.20;80.40;;;;;;5063107;28;19912;-62
2022/02/17 12:59:38;;;;;;;;;;;10.20;81.10;;;;;;5063090;28;19912;-63
2022/02/17 13:02:03;;;;;;;;;;;10.30;80.00;;;;;;5062087;28;19940;-63
2022/02/17 13:04:30;;;;;;;;;;;10.30;78.50;;;;;;5063213;28;19916;-64
2022/02/17 13:07:02;;;;;;;;;;;10.20;77.80;;;;;;5063164;28;19909;-63
2022/02/17 13:09:28;;;;;;;;;;;10.20;76.00;;;;;;5062918;28;19916;-63
2022/02/17 13:11:56;;;;;;;;;;;11.50;71.60;;;;;;5062566;28;20068;-63
2022/02/17 13:14:30;;;;;;;;;;;13.80;62.20;;;;;;5062747;28;20085;-64
2022/02/17 13:16:57;;;;;;;;;;;16.10;52.90;;;;;;5061593;28;20118;-63
2022/02/17 13:19:45;;;;;;;;;;;17.60;47.20;;;;;;5062490;28;19984;-64
2022/02/17 13:22:15;;;;;;;;;;;18.10;45.60;;;;;;5062429;28;19984;-63
2022/02/17 13:24:42;;;;;;;;;;;18.60;44.50;;;;;;5062589;28;19908;-64
2022/02/17 13:27:12;;;;;;;;;;;18.80;43.00;;;;;;5062629;28;19909;-64
2022/02/17 13:29:51;;;;;;;;;;;19.50;42.50;;;;;;5062532;28;20249;-64
2022/02/17 13:32:16;;;;;;;;;;;20.40;39.70;;;;;;5061958;28;19909;-64
2022/02/17 13:34:42;;;;;;;;;;;19.60;41.20;;;;;;5062377;28;19931;-64
2022/02/17 13:37:08;;;;;;;;;;;19.00;42.10;;;;;;5062488;28;19913;-63
2022/02/17 13:39:34;;;;;;;;;;;19.30;42.00;;;;;;5062232;28;19972;-64
2022/02/17 13:42:00;;;;;;;;;;;19.20;41.80;;;;;;5062134;28;19916;-64
2022/02/17 13:44:30;;;;;;;;;;;19.30;40.90;;;;;;5062626;28;20018;-64
2022/02/17 13:46:55;;;;;;;;;;;19.80;41.00;;;;;;5061950;28;19931;-64
2022/02/17 13:49:21;;;;;;;;;;;19.60;41.00;;;;;;5061967;28;20204;-64
2022/02/17 13:51:47;;;;;;;;;;;20.00;41.80;;;;;;5061941;28;20218;-64
2022/02/17 13:54:14;;;;;;;;;;;20.20;41.20;;;;;;5062291;28;19920;-64
2022/02/17 13:56:39;;;;;;;;;;;20.70;38.30;;;;;;5062157;28;19909;-64
2022/02/17 13:59:05;;;;;;;;;;;21.00;39.00;;;;;;5061745;28;20226;-64
2022/02/17 14:01:38;;;;;;;;;;;20.60;39.30;;;;;;5060854;28;19909;-64
2022/02/17 14:04:04;;;;;;;;;;;20.00;38.90;;;;;;5061930;28;19909;-63
2022/02/17 14:06:30;;;;;;;;;;;18.90;41.20;;;;;;5061951;28;19908;-64
2022/02/17 14:08:55;;;;;;;;;;;20.60;39.90;;;;;;5061260;28;19951;-64
2022/02/17 14:11:21;;;;;;;;;;;19.40;39.90;;;;;;5061356;28;20266;-63
2022/02/17 14:13:47;;;;;;;;;;;18.40;43.20;;;;;;5061823;28;19913;-64
2022/02/17 14:16:13;;;;;;;;;;;17.80;44.00;;;;;;5061825;28;19909;-64
2022/02/17 14:18:39;;;;;;;;;;;16.70;45.60;;;;;;5061486;28;20016;-64